createdAt,value
2023-03-16T00:02:07.091Z,8.10
2023-03-16T00:04:37.935Z,7.07
2023-03-16T00:07:09.557Z,7.00
2023-03-16T00:09:40.845Z,7.00
2023-03-16T00:12:15.761Z,6.13
2023-03-16T00:14:44.545Z,5.78
2023-03-16T00:17:20.570Z,5.88
2023-03-16T00:19:55.913Z,5.32
2023-03-16T00:22:28.434Z,4.80
2023-03-16T00:24:56.533Z,5.43
2023-03-16T00:27:27.504Z,4.75
2023-03-16T00:30:00.030Z,4.87
2023-03-16T00:32:35.701Z,4.93
2023-03-16T00:35:04.431Z,5.13
2023-03-16T00:37:32.997Z,4.55
2023-03-16T00:40:00.856Z,5.18
2023-03-16T00:42:30.387Z,5.93
2023-03-16T00:44:59.894Z,5.97
2023-03-16T00:47:30.549Z,6.90
2023-03-16T00:49:58.247Z,5.63
2023-03-16T00:52:27.363Z,7.95
2023-03-16T00:54:55.354Z,8.75
2023-03-16T00:57:25.312Z,8.77
2023-03-16T00:59:52.692Z,8.63
2023-03-16T01:02:23.471Z,8.30
2023-03-16T01:04:51.911Z,9.57
2023-03-16T01:07:19.277Z,8.77
2023-03-16T01:09:47.887Z,9.43
2023-03-16T01:12:17.292Z,10.63
2023-03-16T01:14:47.991Z,10.63
2023-03-16T01:17:17.293Z,9.80
2023-03-16T01:19:44.649Z,9.75
2023-03-16T01:22:12.213Z,8.02
2023-03-16T01:24:40.616Z,8.88
2023-03-16T01:27:08.826Z,10.27
2023-03-16T01:29:37.438Z,9.13
2023-03-16T01:32:04.551Z,10.27
2023-03-16T01:34:32.867Z,9.68
2023-03-16T01:37:01.010Z,9.35
2023-03-16T01:39:50.562Z,10.15
2023-03-16T01:42:17.658Z,10.70
2023-03-16T01:45:05.670Z,9.90
2023-03-16T01:47:38.898Z,9.30
2023-03-16T01:50:10.249Z,9.15
2023-03-16T01:52:39.990Z,9.27
2023-03-16T01:55:09.555Z,8.35
2023-03-16T01:57:42.688Z,10.00
2023-03-16T02:00:22.053Z,8.98
2023-03-16T02:03:07.983Z,8.90
2023-03-16T02:05:53.389Z,9.52
2023-03-16T02:08:23.067Z,8.55
2023-03-16T02:10:50.721Z,8.95
2023-03-16T02:13:17.547Z,8.77
2023-03-16T02:15:44.631Z,8.60
2023-03-16T02:18:11.337Z,8.48
2023-03-16T02:20:56.922Z,8.63
2023-03-16T02:23:25.405Z,8.25
2023-03-16T02:26:11.127Z,8.48
2023-03-16T02:29:10.077Z,8.32
2023-03-16T02:31:37.910Z,8.57
2023-03-16T02:34:07.410Z,7.93
2023-03-16T02:36:36.432Z,8.15
2023-03-16T02:39:05.826Z,6.88
2023-03-16T02:41:41.903Z,6.97
2023-03-16T02:44:16.064Z,7.18
2023-03-16T02:46:45.335Z,7.63
2023-03-16T02:49:30.038Z,7.38
2023-03-16T02:51:57.617Z,6.78
2023-03-16T02:54:24.743Z,7.63
2023-03-16T02:56:52.412Z,7.40
2023-03-16T02:59:20.194Z,7.15
2023-03-16T03:01:46.898Z,7.63
2023-03-16T03:04:13.792Z,8.77
2023-03-16T03:06:41.783Z,9.73
2023-03-16T03:09:11.394Z,8.48
2023-03-16T03:11:40.244Z,8.18
2023-03-16T03:14:07.531Z,8.05
2023-03-16T03:16:36.552Z,8.65
2023-03-16T03:19:03.422Z,8.95
2023-03-16T03:21:35.064Z,8.80
2023-03-16T03:24:02.810Z,8.57
2023-03-16T03:26:30.125Z,7.72
2023-03-16T03:28:59.565Z,8.05
2023-03-16T03:31:26.465Z,6.88
2023-03-16T03:33:54.138Z,7.07
2023-03-16T03:36:22.339Z,7.47
2023-03-16T03:38:54.794Z,7.95
2023-03-16T03:41:22.568Z,8.55
2023-03-16T03:43:50.957Z,7.55
2023-03-16T03:46:18.966Z,8.20
2023-03-16T03:48:46.102Z,7.40
2023-03-16T03:51:12.973Z,8.20
2023-03-16T03:53:48.626Z,8.10
2023-03-16T03:56:20.693Z,8.13
2023-03-16T03:58:47.939Z,7.50
2023-03-16T04:01:23.914Z,8.30
2023-03-16T04:03:50.815Z,8.32
2023-03-16T04:06:18.142Z,6.70
2023-03-16T04:08:45.007Z,6.60
2023-03-16T04:11:15.244Z,7.85
2023-03-16T04:13:41.968Z,6.38
2023-03-16T04:16:10.217Z,7.05
2023-03-16T04:18:42.697Z,7.07
2023-03-16T04:21:15.950Z,6.68
2023-03-16T04:23:43.564Z,6.63
2023-03-16T04:26:10.724Z,5.85
2023-03-16T04:28:37.694Z,6.90
2023-03-16T04:31:09.389Z,7.22
2023-03-16T04:33:42.358Z,6.95
2023-03-16T04:36:09.284Z,5.88
2023-03-16T04:38:37.725Z,5.82
2023-03-16T04:41:06.677Z,7.22
2023-03-16T04:43:37.573Z,7.60
2023-03-16T04:46:13.867Z,5.80
2023-03-16T04:48:40.969Z,7.43
2023-03-16T04:51:08.927Z,6.18
2023-03-16T04:53:39.342Z,7.22
2023-03-16T04:56:19.506Z,6.43
2023-03-16T04:58:51.677Z,6.65
2023-03-16T05:01:20.589Z,7.50
2023-03-16T05:03:50.462Z,7.80
2023-03-16T05:06:17.870Z,7.63
2023-03-16T05:08:45.528Z,8.60
2023-03-16T05:11:12.189Z,9.10
2023-03-16T05:13:47.810Z,8.25
2023-03-16T05:16:15.469Z,7.75
2023-03-16T05:18:42.381Z,11.15
2023-03-16T05:21:09.683Z,8.35
2023-03-16T05:23:53.775Z,8.07
2023-03-16T05:26:20.772Z,8.43
2023-03-16T05:28:47.560Z,9.02
2023-03-16T05:31:16.943Z,6.38
2023-03-16T05:33:48.797Z,8.27
2023-03-16T05:36:18.822Z,8.88
2023-03-16T05:38:48.696Z,7.25
2023-03-16T05:41:41.933Z,8.90
2023-03-16T05:44:33.554Z,9.00
2023-03-16T05:47:11.268Z,7.88
2023-03-16T05:49:43.291Z,8.10
2023-03-16T05:52:19.935Z,6.43
2023-03-16T05:54:46.698Z,8.10
2023-03-16T05:57:13.617Z,6.68
2023-03-16T05:59:43.907Z,6.03
2023-03-16T06:02:11.874Z,8.82
2023-03-16T06:04:38.626Z,8.43
2023-03-16T06:07:05.545Z,9.35
2023-03-16T06:09:33.610Z,8.55
2023-03-16T06:12:04.150Z,7.75
2023-03-16T06:14:31.980Z,7.20
2023-03-16T06:16:59.405Z,8.85
2023-03-16T06:19:26.260Z,5.43
2023-03-16T06:21:58.471Z,7.65
2023-03-16T06:24:25.422Z,7.55
2023-03-16T06:26:52.191Z,8.63
2023-03-16T06:29:20.308Z,9.95
2023-03-16T06:31:47.254Z,7.25
2023-03-16T06:34:14.840Z,8.02
2023-03-16T06:36:41.509Z,9.13
2023-03-16T06:39:12.264Z,8.40
2023-03-16T06:41:48.824Z,7.90
2023-03-16T06:44:17.028Z,9.18
2023-03-16T06:46:53.917Z,7.47
2023-03-16T06:49:21.124Z,9.30
2023-03-16T06:51:48.035Z,6.65
2023-03-16T06:54:15.146Z,7.93
2023-03-16T06:56:41.867Z,7.55
2023-03-16T06:59:08.903Z,8.13
2023-03-16T07:01:37.319Z,6.63
2023-03-16T07:04:04.183Z,7.93
2023-03-16T07:06:32.696Z,7.95
2023-03-16T07:09:01.384Z,9.35
2023-03-16T07:11:29.444Z,8.20
2023-03-16T07:13:58.694Z,7.85
2023-03-16T07:16:26.809Z,9.43
2023-03-16T07:18:54.424Z,8.60
2023-03-16T07:21:21.783Z,6.95
2023-03-16T07:23:48.709Z,7.35
2023-03-16T07:26:20.972Z,8.18
2023-03-16T07:28:52.993Z,8.65
2023-03-16T07:31:19.997Z,8.23
2023-03-16T07:33:47.354Z,8.07
2023-03-16T07:36:20.656Z,7.88
2023-03-16T07:38:53.834Z,7.35
2023-03-16T07:41:21.621Z,7.57
2023-03-16T07:43:48.783Z,8.02
2023-03-16T07:46:15.600Z,8.82
2023-03-16T07:48:44.215Z,7.30
2023-03-16T07:51:13.890Z,8.57
2023-03-16T07:53:42.370Z,8.13
2023-03-16T07:56:19.341Z,7.13
2023-03-16T07:58:51.518Z,7.20
2023-03-16T08:01:18.280Z,8.02
2023-03-16T08:03:45.046Z,8.32
2023-03-16T08:06:12.189Z,7.18
2023-03-16T08:08:39.112Z,6.55
2023-03-16T08:11:06.555Z,7.60
2023-03-16T08:13:54.541Z,7.30
2023-03-16T08:16:22.831Z,7.85
2023-03-16T08:18:52.129Z,7.50
2023-03-16T08:21:20.180Z,7.45
2023-03-16T08:23:50.411Z,6.88
2023-03-16T08:26:20.421Z,7.20
2023-03-16T08:28:52.101Z,7.30
2023-03-16T08:31:21.368Z,7.28
2023-03-16T08:33:57.404Z,5.85
2023-03-16T08:36:28.466Z,6.63
2023-03-16T08:39:06.709Z,6.13
2023-03-16T08:41:38.073Z,5.95
2023-03-16T08:44:10.790Z,6.53
2023-03-16T08:46:37.683Z,7.18
2023-03-16T08:49:04.393Z,8.68
2023-03-16T08:51:32.620Z,8.10
2023-03-16T08:53:59.743Z,7.90
2023-03-16T08:56:26.424Z,7.00
2023-03-16T08:58:53.122Z,8.05
2023-03-16T09:01:20.364Z,7.43
2023-03-16T09:03:47.273Z,7.57
2023-03-16T09:06:16.169Z,8.63
2023-03-16T09:08:45.521Z,8.18
2023-03-16T09:11:15.025Z,8.73
2023-03-16T09:13:42.940Z,8.27
2023-03-16T09:16:12.175Z,7.22
2023-03-16T09:18:39.984Z,8.50
2023-03-16T09:21:08.876Z,8.60
2023-03-16T09:23:37.625Z,7.95
2023-03-16T09:26:07.629Z,8.20
2023-03-16T09:28:36.092Z,8.95
2023-03-16T09:31:03.419Z,7.97
2023-03-16T09:33:32.149Z,7.78
2023-03-16T09:35:58.871Z,8.23
2023-03-16T09:38:29.468Z,8.10
2023-03-16T09:41:10.840Z,8.43
2023-03-16T09:43:49.729Z,6.57
2023-03-16T09:46:36.183Z,7.43
2023-03-16T09:49:03.884Z,7.35
2023-03-16T09:51:54.664Z,8.30
2023-03-16T09:54:39.303Z,8.30
2023-03-16T09:57:23.699Z,8.05
2023-03-16T09:59:50.477Z,7.70
2023-03-16T10:02:19.996Z,6.65
2023-03-16T10:04:57.678Z,8.07
2023-03-16T10:07:50.545Z,7.28
2023-03-16T10:10:21.483Z,8.02
2023-03-16T10:12:52.631Z,7.50
2023-03-16T10:15:23.086Z,5.20
2023-03-16T10:18:13.015Z,7.78
2023-03-16T10:20:42.078Z,7.25
2023-03-16T10:23:22.925Z,5.97
2023-03-16T10:25:52.360Z,6.93
2023-03-16T10:28:26.224Z,6.78
2023-03-16T10:30:55.807Z,5.30
2023-03-16T10:33:36.742Z,6.40
2023-03-16T10:36:23.254Z,6.55
2023-03-16T10:39:11.545Z,7.38
2023-03-16T10:41:41.993Z,6.22
2023-03-16T10:44:16.860Z,6.45
2023-03-16T10:46:50.938Z,6.75
2023-03-16T10:49:27.317Z,7.55
2023-03-16T10:51:57.873Z,7.32
2023-03-16T10:54:31.772Z,7.07
2023-03-16T10:56:59.217Z,6.60
2023-03-16T10:59:35.208Z,5.70
2023-03-16T11:02:32.682Z,6.22
2023-03-16T11:05:11.115Z,6.03
2023-03-16T11:07:39.224Z,6.53
2023-03-16T11:10:33.324Z,6.28
2023-03-16T11:13:22.745Z,6.50
2023-03-16T11:16:06.528Z,6.35
2023-03-16T11:18:39.165Z,5.85
2023-03-16T11:21:44.028Z,6.53
2023-03-16T11:24:30.873Z,6.38
2023-03-16T11:27:04.534Z,5.88
2023-03-16T11:29:52.780Z,6.22
2023-03-16T11:32:24.744Z,6.60
2023-03-16T11:34:52.938Z,6.07
2023-03-16T11:37:32.691Z,5.63
2023-03-16T11:40:26.515Z,5.75
2023-03-16T11:43:15.928Z,6.13
2023-03-16T11:45:58.955Z,5.65
2023-03-16T11:48:47.854Z,5.60
2023-03-16T11:52:08.773Z,6.53
2023-03-16T11:54:50.518Z,5.85
2023-03-16T11:57:33.821Z,6.10
2023-03-16T12:00:19.389Z,5.95
2023-03-16T12:03:10.239Z,5.80
2023-03-16T12:06:07.797Z,6.68
2023-03-16T12:08:59.327Z,5.35
2023-03-16T12:11:57.745Z,5.45
2023-03-16T12:14:38.803Z,5.63
2023-03-16T12:17:20.681Z,6.35
2023-03-16T12:20:05.760Z,5.88
2023-03-16T12:22:32.975Z,6.40
2023-03-16T12:25:00.452Z,5.47
2023-03-16T12:27:34.226Z,5.85
2023-03-16T12:30:20.520Z,5.30
2023-03-16T12:33:10.852Z,5.80
2023-03-16T12:36:00.197Z,4.65
2023-03-16T12:38:47.040Z,5.60
2023-03-16T12:41:33.491Z,4.57
2023-03-16T12:44:10.858Z,4.13
2023-03-16T12:47:28.207Z,3.45
2023-03-16T12:50:03.182Z,3.00
2023-03-16T12:52:49.893Z,3.42
2023-03-16T12:55:41.374Z,3.30
2023-03-16T12:58:09.384Z,3.40
2023-03-16T13:00:42.692Z,2.45
2023-03-16T13:03:21.061Z,2.25
2023-03-16T13:05:54.872Z,2.50
2023-03-16T13:08:23.478Z,2.78
2023-03-16T13:11:09.620Z,2.72
2023-03-16T13:13:59.593Z,3.13
2023-03-16T13:16:31.058Z,3.08
2023-03-16T13:18:58.404Z,3.53
2023-03-16T13:21:37.774Z,2.50
2023-03-16T13:24:28.974Z,3.05
2023-03-16T13:27:04.435Z,2.95
2023-03-16T13:29:33.097Z,3.17
2023-03-16T13:32:08.752Z,3.50
2023-03-16T13:34:53.516Z,3.30
2023-03-16T13:37:21.889Z,2.83
2023-03-16T13:39:58.577Z,2.90
2023-03-16T13:42:28.768Z,2.58
2023-03-16T13:44:59.353Z,2.70
2023-03-16T13:47:27.726Z,2.22
2023-03-16T13:50:00.160Z,2.60
2023-03-16T13:52:32.313Z,2.63
2023-03-16T13:55:01.166Z,2.70
2023-03-16T13:57:30.732Z,2.25
2023-03-16T14:00:20.213Z,2.92
2023-03-16T14:02:51.694Z,2.13
2023-03-16T14:05:24.729Z,2.37
2023-03-16T14:07:52.788Z,2.60
2023-03-16T14:10:21.149Z,2.50
2023-03-16T14:12:55.648Z,2.78
2023-03-16T14:15:26.001Z,2.72
2023-03-16T14:17:53.682Z,3.05
2023-03-16T14:20:25.545Z,2.42
2023-03-16T14:22:53.677Z,2.97
2023-03-16T14:25:27.907Z,2.95
2023-03-16T14:28:00.944Z,3.10
2023-03-16T14:30:30.326Z,2.72
2023-03-16T14:33:04.242Z,2.50
2023-03-16T14:35:43.032Z,2.50
2023-03-16T14:38:33.642Z,2.30
2023-03-16T14:41:12.522Z,2.90
2023-03-16T14:43:46.411Z,2.53
2023-03-16T14:46:18.028Z,2.45
2023-03-16T14:48:45.785Z,2.75
2023-03-16T14:51:16.322Z,2.47
2023-03-16T14:53:43.390Z,2.45
2023-03-16T14:56:13.573Z,3.00
2023-03-16T14:58:41.313Z,3.75
2023-03-16T15:01:16.157Z,3.35
2023-03-16T15:03:43.546Z,3.53
2023-03-16T15:06:10.462Z,4.32
2023-03-16T15:08:44.412Z,4.15
2023-03-16T15:11:11.844Z,3.60
2023-03-16T15:13:41.875Z,3.20
2023-03-16T15:16:13.999Z,3.08
2023-03-16T15:18:42.063Z,3.67
2023-03-16T15:21:15.813Z,3.15
2023-03-16T15:23:43.716Z,2.92
2023-03-16T15:26:15.424Z,2.90
2023-03-16T15:28:43.013Z,3.17
2023-03-16T15:31:14.558Z,3.03
2023-03-16T15:33:45.400Z,3.03
2023-03-16T15:36:15.914Z,2.58
2023-03-16T15:38:48.285Z,2.55
2023-03-16T15:43:41.773Z,2.78
2023-03-16T15:46:10.428Z,2.50
2023-03-16T15:48:37.152Z,2.70
2023-03-16T15:51:27.681Z,2.78
2023-03-16T15:54:07.015Z,2.85
2023-03-16T15:56:51.004Z,3.30
2023-03-16T15:59:22.154Z,2.65
2023-03-16T16:01:49.499Z,2.90
2023-03-16T16:04:23.499Z,3.42
2023-03-16T16:06:54.413Z,2.95
2023-03-16T16:09:22.090Z,2.67
2023-03-16T16:11:50.519Z,2.58
2023-03-16T16:14:22.183Z,2.72
2023-03-16T16:16:48.977Z,2.85
2023-03-16T16:19:16.770Z,3.03
2023-03-16T16:21:43.918Z,2.88
2023-03-16T16:24:11.237Z,2.75
2023-03-16T16:26:50.038Z,3.22
2023-03-16T16:29:24.094Z,2.60
2023-03-16T16:31:54.388Z,2.67
2023-03-16T16:34:24.635Z,2.33
2023-03-16T16:36:52.071Z,2.58
2023-03-16T16:39:18.813Z,2.75
2023-03-16T16:41:46.187Z,2.63
2023-03-16T16:44:23.579Z,2.60
2023-03-16T16:46:52.157Z,2.60
2023-03-16T16:49:25.118Z,2.70
2023-03-16T16:51:53.466Z,3.03
2023-03-16T16:54:25.605Z,2.88
2023-03-16T16:56:54.135Z,2.90
2023-03-16T16:59:24.869Z,3.00
2023-03-16T17:01:54.135Z,3.20
2023-03-16T17:04:24.775Z,3.25
2023-03-16T17:06:55.454Z,2.95
2023-03-16T17:09:23.366Z,2.70
2023-03-16T17:11:51.232Z,3.00
2023-03-16T17:14:21.802Z,2.60
2023-03-16T17:16:50.480Z,2.72
2023-03-16T17:19:23.341Z,3.22
2023-03-16T17:21:55.434Z,3.00
2023-03-16T17:24:22.839Z,3.72
2023-03-16T17:26:54.859Z,4.20
2023-03-16T17:29:25.937Z,4.90
2023-03-16T17:31:52.977Z,3.90
2023-03-16T17:34:25.404Z,3.45
2023-03-16T17:39:27.843Z,3.42
2023-03-16T17:42:02.179Z,3.75
2023-03-16T17:44:35.269Z,4.05
2023-03-16T17:47:02.251Z,3.92
2023-03-16T17:49:30.735Z,3.70
2023-03-16T17:51:57.550Z,4.10
2023-03-16T17:54:24.271Z,3.83
2023-03-16T17:56:53.968Z,3.70
2023-03-16T17:59:22.939Z,3.42
2023-03-16T18:01:50.255Z,3.10
2023-03-16T18:04:19.170Z,3.30
2023-03-16T18:06:49.203Z,4.00
2023-03-16T18:09:20.520Z,4.20
2023-03-16T18:11:49.979Z,4.25
2023-03-16T18:14:26.911Z,3.75
2023-03-16T18:16:54.702Z,3.50
2023-03-16T18:19:27.238Z,3.65
2023-03-16T18:21:53.972Z,3.63
2023-03-16T18:24:22.379Z,3.25
2023-03-16T18:26:49.049Z,3.92
2023-03-16T18:29:15.732Z,4.75
2023-03-16T18:31:44.495Z,5.55
2023-03-16T18:34:21.268Z,4.53
2023-03-16T18:36:47.942Z,3.92
2023-03-16T18:39:20.339Z,3.17
2023-03-16T18:44:25.900Z,3.70
2023-03-16T18:47:01.213Z,4.55
2023-03-16T18:49:36.699Z,3.67
2023-03-16T18:52:03.920Z,4.55
2023-03-16T18:54:32.786Z,3.78
2023-03-16T18:56:59.428Z,3.97
2023-03-16T18:59:26.804Z,4.03
2023-03-16T19:01:53.655Z,3.92
2023-03-16T19:04:23.909Z,4.00
2023-03-16T19:06:54.070Z,4.30
2023-03-16T19:09:23.220Z,4.05
2023-03-16T19:11:51.045Z,4.32
2023-03-16T19:14:26.709Z,4.28
2023-03-16T19:16:54.635Z,4.10
2023-03-16T19:19:22.815Z,4.88
2023-03-16T19:21:54.986Z,4.05
2023-03-16T19:24:26.550Z,3.70
2023-03-16T19:26:54.509Z,4.20
2023-03-16T19:29:30.887Z,4.57
2023-03-16T19:31:58.377Z,4.43
2023-03-16T19:34:25.461Z,4.18
2023-03-16T19:36:52.566Z,3.92
2023-03-16T19:39:20.704Z,3.60
2023-03-16T19:41:54.101Z,3.92
2023-03-16T19:44:23.700Z,4.10
2023-03-16T19:46:50.919Z,4.07
2023-03-16T19:49:20.176Z,4.13
2023-03-16T19:51:48.428Z,4.38
2023-03-16T19:54:22.292Z,4.28
2023-03-16T19:56:50.011Z,4.07
2023-03-16T19:59:16.887Z,4.25
2023-03-16T20:01:43.718Z,4.20
2023-03-16T20:04:23.254Z,4.22
2023-03-16T20:06:50.972Z,4.13
2023-03-16T20:09:18.301Z,4.38
2023-03-16T20:11:46.030Z,5.10
2023-03-16T20:14:31.436Z,4.72
2023-03-16T20:16:58.663Z,4.57
2023-03-16T20:19:25.489Z,4.70
2023-03-16T20:21:52.146Z,4.63
2023-03-16T20:24:24.039Z,4.93
2023-03-16T20:26:52.405Z,5.40
2023-03-16T20:29:29.314Z,5.00
2023-03-16T20:31:56.264Z,5.05
2023-03-16T20:34:28.718Z,4.80
2023-03-16T20:39:22.907Z,4.63
2023-03-16T20:41:50.539Z,4.85
2023-03-16T20:44:23.758Z,5.30
2023-03-16T20:46:50.595Z,4.30
2023-03-16T20:49:23.747Z,5.03
2023-03-16T20:51:50.921Z,4.65
2023-03-16T20:54:17.813Z,5.88
2023-03-16T20:56:44.625Z,5.10
2023-03-16T20:59:20.235Z,5.05
2023-03-16T21:01:47.496Z,4.93
2023-03-16T21:04:24.141Z,4.60
2023-03-16T21:06:50.878Z,5.30
2023-03-16T21:09:20.000Z,5.15
2023-03-16T21:11:47.919Z,6.38
2023-03-16T21:14:25.170Z,5.85
2023-03-16T21:16:53.858Z,6.35
2023-03-16T21:19:23.730Z,7.53
2023-03-16T21:21:50.947Z,7.07
2023-03-16T21:24:17.633Z,9.00
2023-03-16T21:26:45.111Z,7.78
2023-03-16T21:29:17.222Z,8.02
2023-03-16T21:31:44.323Z,7.70
2023-03-16T21:34:33.874Z,7.90
2023-03-16T21:37:00.865Z,7.63
2023-03-16T21:39:28.335Z,8.05
2023-03-16T21:41:55.039Z,6.95
2023-03-16T21:44:21.900Z,7.25
2023-03-16T21:46:48.784Z,5.47
2023-03-16T21:49:15.986Z,4.38
2023-03-16T21:51:44.816Z,4.40
2023-03-16T21:54:15.771Z,4.40
2023-03-16T21:56:43.163Z,5.28
2023-03-16T21:59:10.775Z,4.25
2023-03-16T22:01:50.662Z,5.07
2023-03-16T22:04:25.273Z,4.80
2023-03-16T22:06:52.351Z,4.47
2023-03-16T22:09:20.830Z,4.93
2023-03-16T22:11:47.586Z,4.43
2023-03-16T22:14:14.280Z,4.75
2023-03-16T22:16:41.463Z,4.28
2023-03-16T22:19:13.515Z,5.55
2023-03-16T22:21:42.881Z,5.25
2023-03-16T22:24:28.125Z,4.93
2023-03-16T22:26:55.383Z,4.68
2023-03-16T22:29:28.673Z,4.75
2023-03-16T22:32:07.423Z,4.40
2023-03-16T22:34:45.242Z,4.43
2023-03-16T22:37:25.192Z,4.65
2023-03-16T22:39:53.056Z,4.43
2023-03-16T22:42:19.618Z,4.50
2023-03-16T22:44:46.322Z,4.32
2023-03-16T22:47:28.340Z,4.68
2023-03-16T22:49:55.430Z,4.43
2023-03-16T22:52:28.199Z,4.75
2023-03-16T22:54:55.471Z,4.05
2023-03-16T22:57:22.652Z,4.85
2023-03-16T22:59:51.182Z,4.03
2023-03-16T23:02:20.999Z,4.45
2023-03-16T23:04:47.739Z,4.32
2023-03-16T23:07:15.072Z,4.35
2023-03-16T23:09:42.062Z,5.07
2023-03-16T23:12:19.226Z,4.55
2023-03-16T23:14:46.235Z,4.80
2023-03-16T23:17:18.659Z,3.97
2023-03-16T23:22:12.727Z,3.85
2023-03-16T23:24:41.127Z,4.30
2023-03-16T23:27:18.120Z,4.70
2023-03-16T23:29:44.923Z,4.63
2023-03-16T23:32:11.900Z,4.20
2023-03-16T23:34:38.859Z,3.72
2023-03-16T23:37:05.697Z,4.70
2023-03-16T23:39:32.596Z,4.55
2023-03-16T23:41:59.250Z,4.05
2023-03-16T23:44:28.500Z,4.60
2023-03-16T23:46:55.825Z,4.35
2023-03-16T23:49:26.254Z,4.13
2023-03-16T23:51:56.273Z,4.10
2023-03-16T23:54:29.856Z,4.82
2023-03-16T23:56:57.324Z,4.50
2023-03-16T23:59:25.186Z,4.28
